Time;durP1;ratioP1;P1;durP2;ratioP2;P2;SDS_P1;SDS_P2;PMS_P1;PMS_P2;Temp;Humidity;BMP_temperature;BMP_pressure;BME280_temperature;BME280_humidity;BME280_pressure;Samples;Min_cycle;Max_cycle;Signal;HPM_P1;HPM_P2
2022/10/01 00:00:10;;;;;;;7.25;3.53;;;;;;;14.95;68.94;94345.09;5108146;28;20048;-78
2022/10/01 00:02:37;;;;;;;8.32;3.67;;;;;;;15.00;69.16;94349.47;5126196;28;20031;-78
2022/10/01 00:05:05;;;;;;;5.90;3.50;;;;;;;15.03;69.17;94349.59;5126366;27;20031;-77
2022/10/01 00:07:36;;;;;;;6.03;3.20;;;;;;;15.03;69.05;94365.72;5125254;28;20042;-78
2022/10/01 00:10:02;;;;;;;9.63;3.50;;;;;;;15.01;68.80;94345.69;5126492;28;20034;-79
2022/10/01 00:12:28;;;;;;;10.63;3.30;;;;;;;15.06;69.34;94345.47;5126195;28;20328;-79
2022/10/01 00:14:53;;;;;;;5.85;3.10;;;;;;;15.03;69.29;94349.59;5126385;28;20023;-79
2022/10/01 00:17:19;;;;;;;9.68;4.38;;;;;;;15.01;69.48;94346.47;5126048;28;20089;-79
2022/10/01 00:19:44;;;;;;;6.30;3.25;;;;;;;15.03;69.76;94352.28;5125954;28;20101;-79
2022/10/01 00:22:09;;;;;;;8.32;3.45;;;;;;;14.99;68.80;94347.91;5125956;28;20016;-79
2022/10/01 00:24:36;;;;;;;6.40;3.65;;;;;;;15.01;68.36;94351.03;5125738;28;20016;-79
2022/10/01 00:27:02;;;;;;;8.52;3.50;;;;;;;15.10;69.19;94353.66;5125911;28;20055;-79
2022/10/01 00:29:27;;;;;;;9.25;3.40;;;;;;;15.10;69.15;94350.97;5125836;28;20049;-79
2022/10/01 00:31:53;;;;;;;7.88;3.63;;;;;;;14.99;69.49;94356.75;5125894;28;20026;-79
2022/10/01 00:34:18;;;;;;;12.40;5.10;;;;;;;14.86;69.99;94357.81;5107514;28;20069;-79
2022/10/01 00:36:44;;;;;;;15.77;5.82;;;;;;;14.78;70.87;94351.38;5125691;28;20031;-78
2022/10/01 00:39:10;;;;;;;13.25;5.22;;;;;;;14.82;71.08;94354.22;5125216;28;20040;-78
2022/10/01 00:41:36;;;;;;;6.80;4.13;;;;;;;14.70;71.19;94357.59;5125781;28;20068;-78
2022/10/01 00:44:34;;;;;;;6.60;4.00;;;;;;;14.64;71.04;94337.44;5125472;28;20267;-78
2022/10/01 00:47:32;;;;;;;8.60;4.22;;;;;;;14.66;71.12;94334.44;5125441;28;20020;-78
2022/10/01 00:50:15;;;;;;;9.25;3.75;;;;;;;14.55;70.36;94345.53;5065022;28;20102;-77
2022/10/01 00:52:44;;;;;;;10.48;3.60;;;;;;;14.62;69.86;94329.72;5125344;28;20217;-77
2022/10/01 00:55:14;;;;;;;6.18;3.65;;;;;;;14.69;69.54;94339.13;5125383;28;20027;-78
2022/10/01 00:57:40;;;;;;;5.45;3.95;;;;;;;14.82;69.30;94351.53;5125530;28;20218;-77
2022/10/01 01:00:09;;;;;;;6.70;3.33;;;;;;;14.86;68.38;94349.75;5125161;28;20031;-77
2022/10/01 01:02:35;;;;;;;12.05;3.50;;;;;;;14.90;69.29;94342.63;5125134;28;20317;-78
2022/10/01 01:05:02;;;;;;;11.43;4.75;;;;;;;14.99;69.13;94347.91;5124929;28;20019;-77
2022/10/01 01:07:30;;;;;;;7.63;4.28;;;;;;;15.03;69.30;94333.50;5124983;28;20209;-77
2022/10/01 01:09:56;;;;;;;11.40;3.72;;;;;;;15.05;69.06;94336.63;5125021;28;20034;-77
2022/10/01 01:12:30;;;;;;;14.90;4.47;;;;;;;15.09;69.53;94327.94;5124824;28;20019;-77
2022/10/01 01:15:17;;;;;;;7.72;4.05;;;;;;;15.04;69.44;94329.72;5124903;28;20325;-77
2022/10/01 01:17:49;;;;;;;12.38;5.18;;;;;;;15.04;69.67;94329.72;5124699;28;20398;-77
2022/10/01 01:20:56;;;;;;;5.65;3.88;;;;;;;15.03;69.56;94327.34;5123716;28;20124;-78
2022/10/01 01:23:50;;;;;;;18.20;4.47;;;;;;;15.02;69.80;94342.66;5077462;28;20278;-77
2022/10/01 01:26:18;;;;;;;5.93;3.88;;;;;;;14.98;69.86;94320.28;5102710;28;20036;-77
2022/10/01 01:28:52;;;;;;;9.82;3.60;;;;;;;14.99;70.32;94335.25;5124686;28;20042;-77
2022/10/01 01:31:24;;;;;;;7.97;3.63;;;;;;;14.93;69.95;94341.16;5124408;28;20015;-77
2022/10/01 01:33:52;;;;;;;7.10;3.80;;;;;;;14.87;70.24;94329.84;5124661;28;20026;-77
2022/10/01 01:36:26;;;;;;;9.88;4.25;;;;;;;14.84;70.36;94335.88;5124396;28;20029;-77
2022/10/01 01:38:56;;;;;;;7.22;4.57;;;;;;;14.80;70.66;94329.59;5124200;28;20063;-77
2022/10/01 01:41:26;;;;;;;6.47;4.20;;;;;;;14.81;70.82;94341.88;5106351;28;20023;-77
2022/10/01 01:43:58;;;;;;;6.20;4.40;;;;;;;14.72;71.20;94333.13;5124386;28;20019;-77
2022/10/01 01:46:30;;;;;;;7.22;4.97;;;;;;;14.67;71.38;94331.41;5124388;28;20329;-77
2022/10/01 01:48:58;;;;;;;8.95;5.43;;;;;;;14.68;71.92;94348.31;5124351;28;20030;-77
2022/10/01 01:51:46;;;;;;;8.70;4.95;;;;;;;14.55;72.01;94342.03;5124270;28;20018;-77
2022/10/01 01:54:12;;;;;;;6.88;4.50;;;;;;;14.54;72.09;94343.94;5124039;28;20168;-77
2022/10/01 01:56:37;;;;;;;10.55;5.57;;;;;;;14.48;72.34;94323.00;5123956;28;20023;-77
2022/10/01 01:59:04;;;;;;;14.68;4.95;;;;;;;14.48;72.47;94331.84;5123921;28;20083;-77
2022/10/01 02:01:41;;;;;;;9.25;5.22;;;;;;;14.41;72.65;94328.88;5124157;28;20020;-77
2022/10/01 02:04:21;;;;;;;6.93;4.47;;;;;;;14.34;72.72;94329.38;5123934;28;20024;-77
2022/10/01 02:07:28;;;;;;;13.68;4.50;;;;;;;14.40;72.86;94356.81;5123953;28;20094;-77
2022/10/01 02:10:29;;;;;;;7.15;4.07;;;;;;;14.40;72.06;94356.81;5092462;28;20028;-77
2022/10/01 02:13:37;;;;;;;8.63;4.60;;;;;;;14.37;72.51;94358.25;5105538;28;20027;-77
2022/10/01 02:16:24;;;;;;;13.32;4.70;;;;;;;14.22;73.12;94358.78;5123700;28;20111;-77
2022/10/01 02:19:17;;;;;;;7.28;4.57;;;;;;;14.19;73.42;94373.63;5123698;28;20073;-78
2022/10/01 02:21:50;;;;;;;10.75;5.25;;;;;;;14.08;74.12;94337.56;5123679;28;20030;-78
2022/10/01 02:24:31;;;;;;;8.90;4.57;;;;;;;13.97;74.83;94368.53;5123773;28;20046;-80
2022/10/01 02:27:02;;;;;;;7.03;3.92;;;;;;;13.92;74.79;94369.50;5123945;28;20030;-78
2022/10/01 02:29:28;;;;;;;10.55;4.45;;;;;;;13.87;75.30;94355.50;5124125;28;20094;-78
2022/10/01 02:31:56;;;;;;;5.82;4.40;;;;;;;13.88;76.04;94381.97;5123398;28;20340;-77
2022/10/01 02:34:26;;;;;;;10.48;4.03;;;;;;;13.89;75.04;94364.78;5123851;28;20105;-78
2022/10/01 02:36:54;;;;;;;14.27;4.10;;;;;;;13.98;74.90;94359.38;5123457;28;20031;-79
2022/10/01 02:39:22;;;;;;;8.23;3.67;;;;;;;14.04;75.19;94376.84;5123346;28;20043;-77
2022/10/01 02:41:50;;;;;;;8.85;4.25;;;;;;;14.06;74.51;94374.63;5123421;28;20246;-77
2022/10/01 02:44:25;;;;;;;11.13;4.90;;;;;;;14.14;74.35;94376.50;5123438;28;20222;-77
2022/10/01 02:47:01;;;;;;;6.80;3.88;;;;;;;14.21;74.42;94373.31;5123425;28;20026;-77
2022/10/01 02:49:27;;;;;;;13.13;4.28;;;;;;;14.28;74.31;94381.63;5123306;28;20023;-79
2022/10/01 02:51:58;;;;;;;6.90;4.50;;;;;;;14.40;73.92;94387.09;5123588;28;20028;-77
2022/10/01 02:54:34;;;;;;;8.73;4.63;;;;;;;14.49;73.81;94384.38;5123455;28;20042;-77
2022/10/01 02:59:43;;;;;;;10.65;5.15;;;;;;;14.64;73.83;94388.41;5123211;28;20340;-77
2022/10/01 03:02:09;;;;;;;13.43;4.80;;;;;;;14.72;73.75;94386.78;5123240;28;20023;-77
2022/10/01 03:04:35;;;;;;;8.05;4.07;;;;;;;14.76;74.02;94376.97;5123213;28;20031;-77
2022/10/01 03:07:02;;;;;;;11.27;4.38;;;;;;;14.77;73.21;94384.69;5123232;28;20035;-77
2022/10/01 03:09:33;;;;;;;10.95;4.57;;;;;;;14.83;73.23;94379.91;5123174;28;20065;-77
2022/10/01 03:12:00;;;;;;;7.40;4.90;;;;;;;14.89;73.98;94383.97;5123034;28;20314;-77
2022/10/01 03:14:25;;;;;;;7.82;4.35;;;;;;;14.89;73.97;94365.19;5123148;28;20031;-77
2022/10/01 03:16:52;;;;;;;8.38;4.82;;;;;;;14.90;73.82;94372.13;5123241;28;20257;-78
2022/10/01 03:19:18;;;;;;;10.88;5.18;;;;;;;14.93;73.36;94366.09;5122840;28;20054;-78
2022/10/01 03:21:43;;;;;;;10.07;4.93;;;;;;;14.97;73.19;94369.69;5122879;28;20020;-79
2022/10/01 03:24:09;;;;;;;8.25;4.90;;;;;;;14.99;73.18;94364.78;5123103;28;20015;-78
2022/10/01 03:26:35;;;;;;;8.63;4.05;;;;;;;15.01;73.64;94370.63;5123015;28;20263;-78
2022/10/01 03:29:01;;;;;;;11.13;4.68;;;;;;;15.00;73.61;94385.16;5122935;28;20314;-78
2022/10/01 03:31:26;;;;;;;6.82;4.60;;;;;;;15.01;72.54;94392.09;5122833;28;20325;-78
2022/10/01 03:33:52;;;;;;;14.18;4.38;;;;;;;14.96;72.95;94395.00;5123128;28;20156;-78
2022/10/01 03:36:17;;;;;;;7.38;4.75;;;;;;;14.89;72.82;94400.06;5122980;28;20016;-78
2022/10/01 03:38:43;;;;;;;6.90;5.25;;;;;;;14.79;73.75;94403.94;5122762;28;20039;-78
2022/10/01 03:41:08;;;;;;;8.65;4.80;;;;;;;14.69;74.20;94392.78;5122762;28;20027;-79
2022/10/01 03:43:34;;;;;;;12.60;4.65;;;;;;;14.71;73.98;94398.63;5125374;28;20027;-78
2022/10/01 03:46:00;;;;;;;10.00;5.13;;;;;;;14.64;74.76;94397.25;5108498;28;20019;-77
2022/10/01 03:48:26;;;;;;;7.28;4.05;;;;;;;14.61;74.18;94403.28;5126595;28;20024;-78
2022/10/01 03:50:57;;;;;;;14.98;4.47;;;;;;;14.62;73.92;94383.38;5126647;28;20015;-78
2022/10/01 03:53:23;;;;;;;11.05;4.60;;;;;;;14.63;74.26;94378.78;5126435;28;20284;-78
2022/10/01 03:55:49;;;;;;;8.02;4.72;;;;;;;14.57;73.54;94375.53;5126656;28;20061;-77
2022/10/01 03:58:17;;;;;;;8.35;4.30;;;;;;;14.56;73.66;94373.16;5126467;28;20039;-77
2022/10/01 04:00:44;;;;;;;9.75;4.88;;;;;;;14.55;74.00;94383.09;5126230;28;20020;-77
2022/10/01 04:03:10;;;;;;;17.42;4.75;;;;;;;14.53;73.86;94347.75;5126333;28;20045;-77
2022/10/01 04:05:35;;;;;;;10.82;5.55;;;;;;;14.53;74.18;94341.56;5126184;28;20019;-76
2022/10/01 04:08:01;;;;;;;6.88;4.78;;;;;;;14.50;74.22;94336.88;5126153;28;20031;-78
2022/10/01 04:10:26;;;;;;;9.98;5.32;;;;;;;14.51;74.20;94347.28;5126095;28;20019;-78
2022/10/01 04:12:52;;;;;;;11.35;5.50;;;;;;;14.52;74.21;94350.75;5126241;28;20032;-78
2022/10/01 04:15:18;;;;;;;10.70;5.43;;;;;;;14.51;74.18;94362.56;5125908;28;20039;-77
2022/10/01 04:17:43;;;;;;;14.05;5.50;;;;;;;14.50;74.32;94361.03;5126249;28;20023;-78
2022/10/01 04:20:09;;;;;;;15.95;5.95;;;;;;;14.50;74.35;94367.16;5125986;28;20091;-78
2022/10/01 04:22:41;;;;;;;12.40;5.85;;;;;;;14.54;74.38;94359.25;5125795;28;20317;-78
2022/10/01 04:25:09;;;;;;;11.25;5.72;;;;;;;14.54;74.08;94364.63;5125761;28;20309;-78
2022/10/01 04:27:36;;;;;;;9.35;5.90;;;;;;;14.47;74.17;94381.22;5125948;28;20022;-78
2022/10/01 04:30:02;;;;;;;9.32;5.40;;;;;;;14.45;73.83;94380.78;5125777;28;20011;-78
2022/10/01 04:32:27;;;;;;;12.45;5.70;;;;;;;14.37;73.88;94366.28;5125625;28;20016;-78
2022/10/01 04:34:53;;;;;;;9.95;5.43;;;;;;;14.34;74.37;94360.78;5125626;28;20225;-77
2022/10/01 04:37:20;;;;;;;8.05;5.22;;;;;;;14.31;74.70;94364.91;5125212;28;20016;-77
2022/10/01 04:39:45;;;;;;;10.15;5.88;;;;;;;14.32;74.80;94368.38;5125092;28;20043;-77
2022/10/01 04:42:14;;;;;;;13.38;5.60;;;;;;;14.24;75.16;94348.53;5125771;28;20053;-77
2022/10/01 04:44:39;;;;;;;15.88;5.30;;;;;;;14.15;75.39;94367.34;5125648;28;20064;-77
2022/10/01 04:47:06;;;;;;;9.18;5.68;;;;;;;14.15;75.79;94364.66;5125357;28;20337;-77
2022/10/01 04:49:32;;;;;;;6.85;4.88;;;;;;;14.19;75.78;94352.19;5125498;28;20028;-77
2022/10/01 04:51:59;;;;;;;10.40;5.32;;;;;;;14.31;75.17;94364.09;5125419;28;20349;-77
2022/10/01 04:54:25;;;;;;;9.00;5.47;;;;;;;14.38;75.18;94388.53;5125173;28;20019;-77
2022/10/01 04:56:51;;;;;;;9.75;5.68;;;;;;;14.37;75.06;94377.03;5125337;28;20065;-77
2022/10/01 04:59:18;;;;;;;7.28;4.93;;;;;;;14.41;74.83;94377.94;5125350;28;20086;-77
2022/10/01 05:01:43;;;;;;;10.77;5.53;;;;;;;14.54;74.77;94376.13;5125158;28;20091;-78
2022/10/01 05:04:09;;;;;;;15.02;5.38;;;;;;;14.64;74.67;94386.50;5125268;28;20360;-76
2022/10/01 05:06:34;;;;;;;12.48;5.43;;;;;;;14.73;75.08;94402.53;5125036;28;20098;-78
2022/10/01 05:09:00;;;;;;;14.52;4.93;;;;;;;14.77;73.88;94405.38;5125125;28;20329;-79
2022/10/01 05:11:29;;;;;;;9.32;5.35;;;;;;;14.70;73.65;94421.22;5125622;28;20210;-77
2022/10/01 05:13:55;;;;;;;8.10;4.65;;;;;;;14.64;74.34;94418.69;5125080;28;20027;-78
2022/10/01 05:16:21;;;;;;;10.32;5.10;;;;;;;14.53;74.22;94409.44;5125006;28;20023;-79
2022/10/01 05:18:46;;;;;;;9.38;5.22;;;;;;;14.45;74.86;94416.41;5124931;28;20090;-78
2022/10/01 05:21:14;;;;;;;11.27;6.18;;;;;;;14.41;75.05;94407.44;5124672;28;20027;-76
2022/10/01 05:23:40;;;;;;;11.15;5.55;;;;;;;14.39;75.43;94407.00;5124588;28;20085;-76
2022/10/01 05:26:06;;;;;;;12.88;5.50;;;;;;;14.58;75.31;94411.19;5124602;28;20252;-77
2022/10/01 05:28:32;;;;;;;14.68;6.50;;;;;;;14.72;74.25;94397.53;5124605;28;20087;-79
2022/10/01 05:31:02;;;;;;;19.52;6.28;;;;;;;14.78;74.27;94405.06;5106183;28;20049;-76
2022/10/01 05:33:29;;;;;;;15.45;5.95;;;;;;;14.89;74.53;94418.88;5124277;28;20095;-76
2022/10/01 05:35:55;;;;;;;14.38;6.45;;;;;;;14.94;74.70;94420.56;5124331;28;20039;-76
2022/10/01 05:38:21;;;;;;;22.70;6.70;;;;;;;15.05;74.56;94421.75;5124298;28;20103;-77
2022/10/01 05:40:47;;;;;;;17.08;5.90;;;;;;;15.02;74.49;94412.47;5124174;28;20024;-76
2022/10/01 05:43:13;;;;;;;13.75;6.45;;;;;;;15.20;74.58;94406.94;5124321;28;20023;-76
2022/10/01 05:45:40;;;;;;;19.48;7.00;;;;;;;15.35;74.25;94421.69;5123962;28;20027;-76
2022/10/01 05:48:07;;;;;;;12.50;7.40;;;;;;;15.46;74.07;94393.28;5124278;28;20225;-76
2022/10/01 05:50:38;;;;;;;15.35;6.00;;;;;;;15.55;72.99;94390.50;5123773;28;20039;-75
2022/10/01 05:53:05;;;;;;;10.18;5.65;;;;;;;15.65;71.97;94406.22;5124098;28;20073;-78
2022/10/01 05:55:32;;;;;;;9.65;5.18;;;;;;;15.67;72.71;94379.03;5123655;28;20024;-75
2022/10/01 05:58:03;;;;;;;16.05;6.25;;;;;;;15.75;72.49;94389.75;5105422;28;20023;-75
2022/10/01 06:00:30;;;;;;;16.37;5.90;;;;;;;15.79;72.72;94387.16;5123747;28;20063;-75
2022/10/01 06:02:57;;;;;;;13.18;5.68;;;;;;;15.87;72.02;94412.38;5123578;28;20264;-75
2022/10/01 06:05:22;;;;;;;11.40;6.22;;;;;;;15.93;71.80;94406.44;5123181;28;20039;-78
2022/10/01 06:07:48;;;;;;;11.07;5.82;;;;;;;16.01;71.95;94412.84;5123666;28;20042;-78
2022/10/01 06:10:13;;;;;;;12.45;5.80;;;;;;;16.17;71.55;94402.22;5123997;28;20031;-83
2022/10/01 06:12:39;;;;;;;20.20;6.25;;;;;;;16.31;71.05;94410.75;5123732;28;20283;-82
2022/10/01 06:15:05;;;;;;;20.38;6.43;;;;;;;16.49;71.75;94395.19;5123609;28;20147;-82
2022/10/01 06:17:30;;;;;;;13.88;6.30;;;;;;;16.60;68.50;94428.56;5123688;28;20031;-82
2022/10/01 06:19:56;;;;;;;13.63;5.95;;;;;;;16.73;68.42;94428.56;5123656;28;20317;-83
2022/10/01 06:22:21;;;;;;;25.13;6.80;;;;;;;16.72;69.34;94441.25;5105694;28;20023;-82
2022/10/01 06:24:47;;;;;;;15.98;7.38;;;;;;;16.69;69.02;94447.31;5123593;28;20023;-83
2022/10/01 06:27:12;;;;;;;15.90;6.22;;;;;;;16.74;68.46;94446.31;5123849;28;20046;-82
2022/10/01 06:29:38;;;;;;;17.45;6.75;;;;;;;16.78;67.25;94460.66;5123599;28;20047;-84
2022/10/01 06:32:03;;;;;;;14.68;6.28;;;;;;;16.77;66.88;94469.84;5123567;28;20029;-84
2022/10/01 06:34:29;;;;;;;14.60;6.72;;;;;;;16.61;67.83;94467.06;5123578;28;20310;-83
2022/10/01 06:36:54;;;;;;;14.27;6.50;;;;;;;16.63;67.77;94460.22;5123485;28;20024;-82
2022/10/01 06:39:19;;;;;;;18.73;6.72;;;;;;;16.64;69.05;94448.31;5123262;28;20040;-83
2022/10/01 06:41:47;;;;;;;17.35;6.55;;;;;;;16.63;68.18;94459.44;5105228;28;20023;-82
2022/10/01 06:44:12;;;;;;;15.70;7.68;;;;;;;16.68;67.79;94453.03;5123500;28;20054;-83
2022/10/01 06:46:37;;;;;;;14.05;6.97;;;;;;;16.74;67.84;94457.06;5123106;28;20032;-83
2022/10/01 06:49:03;;;;;;;20.10;7.50;;;;;;;16.80;68.06;94415.34;5123034;28;20341;-81
2022/10/01 06:54:13;;;;;;;12.80;6.53;;;;;;;16.99;67.88;94429.00;5123314;28;20060;-82
2022/10/01 06:56:38;;;;;;;14.02;7.10;;;;;;;17.02;66.80;94422.97;5123262;28;20016;-81
2022/10/01 06:59:04;;;;;;;9.80;6.28;;;;;;;17.11;65.78;94425.50;5122868;28;20032;-82
2022/10/01 07:01:31;;;;;;;14.40;6.22;;;;;;;17.16;65.23;94425.28;5123131;28;20090;-85
2022/10/01 07:03:58;;;;;;;12.00;5.78;;;;;;;17.19;65.50;94434.59;5123176;28;20087;-82
2022/10/01 07:06:24;;;;;;;13.15;5.85;;;;;;;17.25;64.70;94450.16;5123310;28;20042;-83
2022/10/01 07:08:50;;;;;;;14.70;6.13;;;;;;;17.33;62.76;94467.31;5123372;28;20214;-82
2022/10/01 07:11:16;;;;;;;11.13;5.75;;;;;;;17.39;63.00;94468.66;5123093;28;20019;-82
2022/10/01 07:13:41;;;;;;;13.07;6.18;;;;;;;17.41;63.36;94466.41;5123125;28;20043;-82
2022/10/01 07:16:06;;;;;;;7.68;5.43;;;;;;;17.55;62.61;94486.81;5123627;28;20041;-82
2022/10/01 07:18:32;;;;;;;8.90;5.00;;;;;;;17.64;62.23;94473.97;5127152;28;20324;-83
2022/10/01 07:20:58;;;;;;;14.75;4.25;;;;;;;17.81;61.63;94476.38;5126986;28;20035;-82
2022/10/01 07:23:23;;;;;;;10.98;4.47;;;;;;;17.98;62.38;94488.03;5127317;28;20229;-82
2022/10/01 07:25:49;;;;;;;12.70;5.50;;;;;;;18.06;62.34;94467.44;5127004;28;20024;-82
2022/10/01 07:28:17;;;;;;;10.32;3.95;;;;;;;18.12;61.25;94466.06;5108641;28;20035;-82
2022/10/01 07:30:57;;;;;;;10.15;4.93;;;;;;;18.24;59.30;94472.16;5126842;28;20050;-83
2022/10/01 07:33:22;;;;;;;7.75;3.95;;;;;;;18.43;59.13;94466.06;5127036;28;20020;-83
2022/10/01 07:35:48;;;;;;;11.98;4.47;;;;;;;18.61;58.44;94453.00;5126925;28;20069;-82
2022/10/01 07:38:14;;;;;;;7.03;4.13;;;;;;;18.77;58.23;94454.91;5126728;28;20043;-82
2022/10/01 07:40:39;;;;;;;8.50;4.10;;;;;;;18.92;58.89;94443.31;5126676;28;20033;-82
2022/10/01 07:43:05;;;;;;;10.20;4.82;;;;;;;19.05;57.14;94452.13;5126951;28;20043;-82
2022/10/01 07:45:30;;;;;;;12.35;4.18;;;;;;;19.20;56.63;94453.22;5126795;28;20028;-82
2022/10/01 07:47:58;;;;;;;8.05;4.78;;;;;;;19.33;57.50;94449.22;5126627;28;20043;-82
2022/10/01 07:50:25;;;;;;;12.73;4.45;;;;;;;19.45;56.32;94449.09;5126797;28;20313;-82
2022/10/01 07:52:55;;;;;;;7.82;3.97;;;;;;;19.59;55.95;94453.25;5126570;28;20125;-82
2022/10/01 07:55:22;;;;;;;10.52;4.13;;;;;;;19.67;56.01;94443.34;5126318;28;20027;-82
2022/10/01 07:57:51;;;;;;;12.70;5.13;;;;;;;19.78;55.54;94455.97;5126370;28;20048;-82
2022/10/01 08:00:18;;;;;;;7.95;4.13;;;;;;;19.84;55.28;94451.03;5108009;28;20051;-82
2022/10/01 08:02:48;;;;;;;9.90;4.00;;;;;;;19.92;54.90;94462.78;5126489;28;20260;-82
2022/10/01 08:05:17;;;;;;;8.30;4.03;;;;;;;20.03;54.89;94452.97;5126270;28;20344;-82
2022/10/01 08:07:44;;;;;;;11.77;4.45;;;;;;;20.07;55.06;94458.41;5125959;28;20023;-82
2022/10/01 08:10:09;;;;;;;8.80;3.85;;;;;;;20.10;54.17;94426.03;5125937;28;20019;-82
2022/10/01 08:12:34;;;;;;;7.85;4.22;;;;;;;20.11;53.15;94430.31;5107870;28;20090;-81
2022/10/01 08:15:01;;;;;;;12.82;5.25;;;;;;;20.09;53.98;94399.31;5126082;28;20049;-81
2022/10/01 08:17:26;;;;;;;19.98;4.63;;;;;;;20.10;53.79;94392.78;5125927;28;20019;-77
2022/10/01 08:19:52;;;;;;;13.68;3.88;;;;;;;20.08;53.15;94403.19;5125883;28;20026;-77
2022/10/01 08:22:18;;;;;;;10.88;3.65;;;;;;;20.06;52.22;94391.94;5125956;28;20015;-77
2022/10/01 08:24:43;;;;;;;8.75;3.70;;;;;;;20.08;52.56;94403.94;5125616;28;20038;-77
2022/10/01 08:27:08;;;;;;;11.13;4.10;;;;;;;20.06;52.84;94395.41;5125620;28;20086;-78
2022/10/01 08:29:34;;;;;;;10.23;4.15;;;;;;;20.06;52.65;94384.59;5125154;28;20008;-85
2022/10/01 08:31:59;;;;;;;11.88;5.05;;;;;;;20.05;53.53;94388.44;5107685;28;20039;-80
2022/10/01 08:34:25;;;;;;;7.68;3.88;;;;;;;20.03;55.08;94390.72;5125977;28;20254;-77
2022/10/01 08:36:51;;;;;;;9.38;3.80;;;;;;;19.99;54.20;94379.06;5125519;28;20076;-80
2022/10/01 08:39:17;;;;;;;11.52;3.83;;;;;;;19.94;53.70;94363.13;5125202;28;20053;-79
2022/10/01 08:41:54;;;;;;;13.70;4.43;;;;;;;19.98;53.37;94380.19;5125362;28;20382;-80
2022/10/01 08:44:26;;;;;;;16.10;4.35;;;;;;;19.97;52.60;94394.88;5125737;28;20023;-79
2022/10/01 08:46:57;;;;;;;16.38;4.60;;;;;;;19.88;53.46;94408.63;5125737;28;20276;-80
2022/10/01 08:49:30;;;;;;;12.10;4.28;;;;;;;19.92;54.30;94376.22;5124236;28;20015;-80
2022/10/01 08:52:05;;;;;;;9.13;3.92;;;;;;;19.96;54.57;94374.38;5124230;28;20020;-80
2022/10/01 08:54:45;;;;;;;9.05;4.45;;;;;;;19.94;55.07;94380.13;5124805;28;20023;-80
2022/10/01 08:57:33;;;;;;;8.30;4.35;;;;;;;19.94;56.61;94365.81;5124281;28;20072;-80
2022/10/01 09:00:03;;;;;;;14.70;4.57;;;;;;;19.77;54.86;94378.66;5123205;28;20069;-80
2022/10/01 09:02:30;;;;;;;13.13;4.45;;;;;;;19.64;55.83;94406.97;5123454;28;20023;-80
2022/10/01 09:04:59;;;;;;;13.48;4.60;;;;;;;19.55;56.53;94430.75;5123484;28;20019;-80
2022/10/01 09:08:15;;;;;;;15.50;4.70;;;;;;;19.52;57.23;94428.75;5123449;28;20027;-81
2022/10/01 09:10:55;;;;;;;14.40;4.97;;;;;;;19.50;58.05;94439.94;5102916;28;20028;-82
2022/10/01 09:13:32;;;;;;;7.82;3.65;;;;;;;19.35;58.37;94470.50;5124379;28;20307;-80
2022/10/01 09:16:21;;;;;;;13.93;4.82;;;;;;;19.13;58.07;94463.84;5125178;28;20039;-80
2022/10/01 09:19:24;;;;;;;13.20;5.38;;;;;;;18.89;61.15;94484.56;5124756;28;20016;-80
2022/10/01 09:21:57;;;;;;;13.77;5.03;;;;;;;18.76;64.57;94491.16;5124917;28;20038;-80
2022/10/01 09:24:40;;;;;;;7.07;4.07;;;;;;;18.65;64.61;94488.97;5125022;28;20035;-80
2022/10/01 09:27:17;;;;;;;21.90;5.82;;;;;;;18.60;64.25;94486.56;5124778;28;20023;-80
2022/10/01 09:29:48;;;;;;;16.27;6.07;;;;;;;18.57;65.09;94475.66;5124671;28;20012;-80
2022/10/01 09:32:18;;;;;;;13.03;5.67;;;;;;;18.61;64.34;94487.31;5124587;28;20023;-83
2022/10/01 09:34:44;;;;;;;10.35;6.38;;;;;;;18.67;66.80;94496.72;5124234;28;20213;-84
2022/10/01 09:37:22;;;;;;;17.17;6.20;;;;;;;18.60;65.36;94491.13;5124333;28;20023;-83
2022/10/01 09:40:05;;;;;;;12.65;6.00;;;;;;;18.49;69.43;94496.28;5123342;28;20047;-83
2022/10/01 09:42:31;;;;;;;8.02;3.92;;;;;;;18.30;64.88;94485.38;5124350;28;20034;-83
2022/10/01 09:44:57;;;;;;;8.45;3.83;;;;;;;18.25;64.21;94478.31;5124014;28;20019;-83
2022/10/01 09:47:24;;;;;;;14.25;4.88;;;;;;;18.25;67.08;94476.41;5124589;28;20028;-83
2022/10/01 09:49:50;;;;;;;14.10;5.32;;;;;;;18.20;64.97;94465.09;5124776;28;20039;-84
2022/10/01 09:52:25;;;;;;;11.32;6.00;;;;;;;18.30;66.86;94453.00;5106412;28;20060;-82
2022/10/01 09:55:26;;;;;;;9.73;5.30;;;;;;;18.30;66.65;94431.41;5124590;28;20313;-82
2022/10/01 09:57:55;;;;;;;8.32;3.95;;;;;;;18.17;66.60;94412.59;5124402;28;20030;-82
2022/10/01 10:00:23;;;;;;;9.02;5.90;;;;;;;18.26;66.61;94388.16;5124472;28;20024;-82
2022/10/01 10:02:51;;;;;;;18.05;6.30;;;;;;;18.19;67.95;94386.06;5124241;28;20027;-81
2022/10/01 10:05:20;;;;;;;10.43;3.78;;;;;;;18.21;65.28;94404.59;5123973;28;20022;-83
2022/10/01 10:07:50;;;;;;;14.20;4.68;;;;;;;18.41;65.20;94381.19;5124014;28;20030;-84
2022/10/01 10:10:24;;;;;;;10.07;3.35;;;;;;;18.54;65.58;94389.97;5124281;28;20022;-83
2022/10/01 10:13:01;;;;;;;18.48;5.28;;;;;;;18.46;65.46;94386.34;5124334;28;20015;-83
2022/10/01 10:15:30;;;;;;;11.65;5.40;;;;;;;18.51;65.58;94380.66;5123972;28;20090;-83
2022/10/01 10:18:05;;;;;;;9.90;6.20;;;;;;;18.52;67.71;94446.22;5124307;28;20095;-83
2022/10/01 10:20:37;;;;;;;11.32;4.97;;;;;;;18.38;66.48;94463.63;5123873;28;20088;-78
2022/10/01 10:23:15;;;;;;;17.88;5.55;;;;;;;18.37;68.27;94445.88;5123881;28;20027;-78
2022/10/01 10:25:41;;;;;;;13.02;5.32;;;;;;;18.43;67.07;94428.28;5123782;28;20027;-79
2022/10/01 10:28:19;;;;;;;18.50;5.65;;;;;;;18.51;69.80;94431.94;5123664;28;20028;-76
2022/10/01 10:30:46;;;;;;;14.52;5.47;;;;;;;18.55;70.21;94434.72;5123744;28;20031;-82
2022/10/01 10:33:13;;;;;;;9.25;4.15;;;;;;;18.60;68.94;94432.56;5123753;28;20056;-80
2022/10/01 10:35:39;;;;;;;11.18;4.40;;;;;;;18.63;68.53;94423.75;5105574;28;20031;-81
2022/10/01 10:38:07;;;;;;;10.35;5.35;;;;;;;18.70;69.29;94460.13;5123367;28;20057;-85
2022/10/01 10:40:44;;;;;;;10.48;5.07;;;;;;;18.67;70.55;94448.13;5123384;28;20019;-79
2022/10/01 10:43:21;;;;;;;17.60;7.05;;;;;;;18.64;69.51;94468.53;5123727;28;20029;-79
2022/10/01 10:45:55;;;;;;;20.50;6.78;;;;;;;18.62;69.88;94426.78;5123440;28;20340;-76
2022/10/01 10:48:27;;;;;;;10.00;6.63;;;;;;;18.64;70.22;94430.72;5123272;28;20031;-76
2022/10/01 10:50:58;;;;;;;;;;;;;;;18.65;71.56;94429.56;5123748;28;20069;-76
2022/10/01 10:53:26;;;;;;;13.73;6.80;;;;;;;18.62;71.41;94427.59;5123477;28;19904;-89
2022/10/01 10:56:04;;;;;;;10.98;6.53;;;;;;;18.68;72.26;94432.72;5123353;28;20226;-79
2022/10/01 10:58:41;;;;;;;15.07;7.07;;;;;;;18.73;72.03;94408.16;5123274;28;20047;-79
2022/10/01 11:01:16;;;;;;;16.25;7.47;;;;;;;18.83;71.87;94413.81;5123173;28;20024;-79
2022/10/01 11:03:47;;;;;;;17.10;6.50;;;;;;;18.90;71.75;94391.56;5123200;28;20153;-79
2022/10/01 11:06:14;;;;;;;16.20;6.95;;;;;;;18.94;71.23;94395.13;5105024;28;20028;-78
2022/10/01 11:08:41;;;;;;;11.63;5.45;;;;;;;18.90;68.79;94388.88;5123384;28;20086;-80
2022/10/01 11:11:32;;;;;;;16.02;5.60;;;;;;;18.87;68.75;94370.69;5123060;28;20016;-80
2022/10/01 11:14:26;;;;;;;12.48;6.35;;;;;;;18.87;69.40;94370.69;5123007;28;20344;-79
2022/10/01 11:17:04;;;;;;;15.85;6.30;;;;;;;18.92;69.31;94337.22;5113610;28;20098;-78
2022/10/01 11:19:53;;;;;;;16.70;6.15;;;;;;;19.02;70.29;94313.13;5122108;28;20222;-78
2022/10/01 11:22:21;;;;;;;13.15;5.43;;;;;;;19.11;70.48;94320.22;5123354;28;20202;-79
2022/10/01 11:24:52;;;;;;;11.63;4.63;;;;;;;19.20;71.19;94313.47;5123153;28;20015;-79
2022/10/01 11:27:37;;;;;;;14.73;4.47;;;;;;;19.24;71.21;94319.72;5122864;28;20019;-74
2022/10/01 11:30:19;;;;;;;11.80;4.40;;;;;;;19.30;71.81;94338.38;5122932;28;20102;-75
2022/10/01 11:33:05;;;;;;;11.13;5.20;;;;;;;19.30;72.17;94332.97;5122832;28;20220;-75
2022/10/01 11:35:55;;;;;;;7.80;4.53;;;;;;;19.33;72.57;94329.53;5121402;28;20321;-75
2022/10/01 11:38:51;;;;;;;11.68;4.22;;;;;;;19.35;72.97;94322.63;5122626;28;20051;-74
2022/10/01 11:41:51;;;;;;;12.60;5.60;;;;;;;19.34;72.58;94318.38;5122589;28;20255;-74
2022/10/01 11:44:21;;;;;;;13.90;5.18;;;;;;;19.36;72.90;94310.69;5105354;28;20325;-74
2022/10/01 11:47:07;;;;;;;9.52;4.88;;;;;;;19.51;72.67;94302.84;5122623;28;20217;-75
2022/10/01 11:49:56;;;;;;;12.45;4.43;;;;;;;19.73;72.35;94277.75;5122917;28;20024;-76